Terminal Aerodrome Forecast
Issued by NWS

Home | Current Version | Previous Version | Text Only | Print | Product List | Glossary On
Versions: 1 2 3 4 5 6 7 8 9 10 11 12 13 14 15 16
000
FTUS42 KTAE 271721
TAFVLD
TAF
KVLD 271721Z 2718/2818 VRB04KT P6SM FEW050 SCT100 OVC250
     FM280900 08006KT 4SM RA OVC025
     FM281200 10005KT 2SM -RA BR OVC007
     FM281600 11006KT 4SM -RA OVC007=

USA.gov is the U.S. government's official web portal to all federal, state and local government web resources and services.